sensor_id;sensor_type;location;lat;lon;timestamp;P1;durP1;ratioP1;P2;durP2;ratioP2
14486;SDS011;7329;50.866;4.366;2022-12-10T00:00:56;10.73;;;8.73;;
14486;SDS011;7329;50.866;4.366;2022-12-10T00:03:05;11.98;;;9.05;;
14486;SDS011;7329;50.866;4.366;2022-12-10T00:05:09;10.73;;;9.10;;
14486;SDS011;7329;50.866;4.366;2022-12-10T00:07:11;11.63;;;8.82;;
14486;SDS011;7329;50.866;4.366;2022-12-10T00:09:14;9.93;;;8.50;;
14486;SDS011;7329;50.866;4.366;2022-12-10T00:11:18;10.43;;;8.88;;
14486;SDS011;7329;50.866;4.366;2022-12-10T00:13:22;11.77;;;8.82;;
14486;SDS011;7329;50.866;4.366;2022-12-10T00:15:24;12.15;;;9.20;;
14486;SDS011;7329;50.866;4.366;2022-12-10T00:17:27;11.23;;;9.15;;
14486;SDS011;7329;50.866;4.366;2022-12-10T00:19:29;11.23;;;9.02;;
14486;SDS011;7329;50.866;4.366;2022-12-10T00:21:34;10.20;;;8.50;;
14486;SDS011;7329;50.866;4.366;2022-12-10T00:23:37;11.63;;;9.00;;
14486;SDS011;7329;50.866;4.366;2022-12-10T00:25:40;11.23;;;9.02;;
14486;SDS011;7329;50.866;4.366;2022-12-10T00:27:42;12.65;;;9.63;;
14486;SDS011;7329;50.866;4.366;2022-12-10T00:29:44;11.35;;;9.07;;
14486;SDS011;7329;50.866;4.366;2022-12-10T00:31:47;11.63;;;9.05;;
14486;SDS011;7329;50.866;4.366;2022-12-10T00:33:49;10.88;;;9.23;;
14486;SDS011;7329;50.866;4.366;2022-12-10T00:35:52;10.93;;;8.30;;
14486;SDS011;7329;50.866;4.366;2022-12-10T00:37:56;10.73;;;8.80;;
14486;SDS011;7329;50.866;4.366;2022-12-10T00:39:58;11.73;;;9.55;;
14486;SDS011;7329;50.866;4.366;2022-12-10T00:42:01;12.18;;;9.90;;
14486;SDS011;7329;50.866;4.366;2022-12-10T00:44:04;10.63;;;8.90;;
14486;SDS011;7329;50.866;4.366;2022-12-10T00:46:06;10.35;;;8.82;;
14486;SDS011;7329;50.866;4.366;2022-12-10T00:48:09;10.77;;;8.65;;
14486;SDS011;7329;50.866;4.366;2022-12-10T00:50:11;11.05;;;9.13;;
14486;SDS011;7329;50.866;4.366;2022-12-10T00:52:14;12.32;;;8.75;;
14486;SDS011;7329;50.866;4.366;2022-12-10T00:54:17;13.13;;;9.90;;
14486;SDS011;7329;50.866;4.366;2022-12-10T00:56:20;10.88;;;9.07;;
14486;SDS011;7329;50.866;4.366;2022-12-10T00:58:26;11.82;;;9.20;;
14486;SDS011;7329;50.866;4.366;2022-12-10T01:00:29;11.40;;;9.18;;
14486;SDS011;7329;50.866;4.366;2022-12-10T01:02:32;11.52;;;9.18;;
14486;SDS011;7329;50.866;4.366;2022-12-10T01:04:34;11.85;;;9.38;;
14486;SDS011;7329;50.866;4.366;2022-12-10T01:06:40;10.65;;;8.90;;
14486;SDS011;7329;50.866;4.366;2022-12-10T01:08:44;10.82;;;8.65;;
14486;SDS011;7329;50.866;4.366;2022-12-10T01:10:53;11.43;;;9.13;;
14486;SDS011;7329;50.866;4.366;2022-12-10T01:12:55;11.20;;;9.20;;
14486;SDS011;7329;50.866;4.366;2022-12-10T01:14:58;10.65;;;8.77;;
14486;SDS011;7329;50.866;4.366;2022-12-10T01:17:01;11.70;;;9.25;;
14486;SDS011;7329;50.866;4.366;2022-12-10T01:19:05;9.38;;;8.38;;
14486;SDS011;7329;50.866;4.366;2022-12-10T01:21:09;12.10;;;9.00;;
14486;SDS011;7329;50.866;4.366;2022-12-10T01:23:13;11.40;;;9.45;;
14486;SDS011;7329;50.866;4.366;2022-12-10T01:25:15;11.05;;;9.27;;
14486;SDS011;7329;50.866;4.366;2022-12-10T01:27:19;11.77;;;9.32;;
14486;SDS011;7329;50.866;4.366;2022-12-10T01:29:21;11.45;;;9.32;;
14486;SDS011;7329;50.866;4.366;2022-12-10T01:31:25;10.73;;;8.63;;
14486;SDS011;7329;50.866;4.366;2022-12-10T01:33:28;12.32;;;9.32;;
14486;SDS011;7329;50.866;4.366;2022-12-10T01:35:31;10.55;;;8.70;;
14486;SDS011;7329;50.866;4.366;2022-12-10T01:37:36;11.10;;;9.05;;
14486;SDS011;7329;50.866;4.366;2022-12-10T01:39:39;10.85;;;8.80;;
14486;SDS011;7329;50.866;4.366;2022-12-10T01:41:42;11.48;;;9.63;;
14486;SDS011;7329;50.866;4.366;2022-12-10T01:43:57;10.77;;;8.77;;
14486;SDS011;7329;50.866;4.366;2022-12-10T01:46:01;11.68;;;9.05;;
14486;SDS011;7329;50.866;4.366;2022-12-10T01:48:04;12.55;;;9.10;;
14486;SDS011;7329;50.866;4.366;2022-12-10T01:50:07;10.52;;;8.77;;
14486;SDS011;7329;50.866;4.366;2022-12-10T01:52:10;12.45;;;9.35;;
14486;SDS011;7329;50.866;4.366;2022-12-10T01:54:13;11.98;;;8.98;;
14486;SDS011;7329;50.866;4.366;2022-12-10T01:56:18;10.98;;;8.70;;
14486;SDS011;7329;50.866;4.366;2022-12-10T01:58:21;12.80;;;9.40;;
14486;SDS011;7329;50.866;4.366;2022-12-10T02:00:24;12.45;;;9.32;;
14486;SDS011;7329;50.866;4.366;2022-12-10T02:02:29;10.15;;;8.90;;
14486;SDS011;7329;50.866;4.366;2022-12-10T02:04:47;10.23;;;8.50;;
14486;SDS011;7329;50.866;4.366;2022-12-10T02:07:00;11.38;;;9.18;;
14486;SDS011;7329;50.866;4.366;2022-12-10T02:09:10;10.88;;;8.77;;
14486;SDS011;7329;50.866;4.366;2022-12-10T02:11:19;10.90;;;9.10;;
14486;SDS011;7329;50.866;4.366;2022-12-10T02:13:30;11.57;;;9.02;;
14486;SDS011;7329;50.866;4.366;2022-12-10T02:15:41;13.50;;;9.40;;
14486;SDS011;7329;50.866;4.366;2022-12-10T02:17:48;13.15;;;9.60;;
14486;SDS011;7329;50.866;4.366;2022-12-10T02:19:59;11.18;;;9.13;;
14486;SDS011;7329;50.866;4.366;2022-12-10T02:22:08;11.77;;;9.25;;
14486;SDS011;7329;50.866;4.366;2022-12-10T02:24:14;9.73;;;8.73;;
14486;SDS011;7329;50.866;4.366;2022-12-10T02:26:20;11.48;;;9.00;;
14486;SDS011;7329;50.866;4.366;2022-12-10T02:28:33;11.35;;;9.10;;
14486;SDS011;7329;50.866;4.366;2022-12-10T02:30:41;12.05;;;9.50;;
14486;SDS011;7329;50.866;4.366;2022-12-10T02:32:44;10.77;;;9.15;;
14486;SDS011;7329;50.866;4.366;2022-12-10T02:34:51;10.80;;;9.15;;
14486;SDS011;7329;50.866;4.366;2022-12-10T02:36:56;13.23;;;9.85;;
14486;SDS011;7329;50.866;4.366;2022-12-10T02:39:02;10.88;;;9.35;;
14486;SDS011;7329;50.866;4.366;2022-12-10T02:41:08;10.82;;;9.20;;
14486;SDS011;7329;50.866;4.366;2022-12-10T02:43:17;11.23;;;9.40;;
14486;SDS011;7329;50.866;4.366;2022-12-10T02:45:21;10.70;;;9.57;;
14486;SDS011;7329;50.866;4.366;2022-12-10T02:47:28;12.73;;;9.40;;
14486;SDS011;7329;50.866;4.366;2022-12-10T02:49:31;10.48;;;8.75;;
14486;SDS011;7329;50.866;4.366;2022-12-10T02:51:35;10.70;;;9.02;;
14486;SDS011;7329;50.866;4.366;2022-12-10T02:53:40;12.93;;;9.63;;
14486;SDS011;7329;50.866;4.366;2022-12-10T02:55:50;12.02;;;9.45;;
14486;SDS011;7329;50.866;4.366;2022-12-10T02:58:06;10.38;;;8.43;;
14486;SDS011;7329;50.866;4.366;2022-12-10T03:00:16;9.75;;;8.20;;
14486;SDS011;7329;50.866;4.366;2022-12-10T03:02:20;11.52;;;9.60;;
14486;SDS011;7329;50.866;4.366;2022-12-10T03:04:31;11.35;;;9.20;;
14486;SDS011;7329;50.866;4.366;2022-12-10T03:06:41;9.77;;;8.75;;
14486;SDS011;7329;50.866;4.366;2022-12-10T03:08:48;11.68;;;9.65;;
14486;SDS011;7329;50.866;4.366;2022-12-10T03:10:55;10.95;;;9.32;;
14486;SDS011;7329;50.866;4.366;2022-12-10T03:13:02;11.93;;;9.20;;
14486;SDS011;7329;50.866;4.366;2022-12-10T03:15:09;11.52;;;9.45;;
14486;SDS011;7329;50.866;4.366;2022-12-10T03:17:12;11.85;;;9.50;;
14486;SDS011;7329;50.866;4.366;2022-12-10T03:19:16;11.15;;;9.32;;
14486;SDS011;7329;50.866;4.366;2022-12-10T03:21:23;10.95;;;9.05;;
14486;SDS011;7329;50.866;4.366;2022-12-10T03:23:28;12.40;;;9.55;;
14486;SDS011;7329;50.866;4.366;2022-12-10T03:25:32;12.25;;;9.52;;
14486;SDS011;7329;50.866;4.366;2022-12-10T03:27:35;10.43;;;9.13;;
14486;SDS011;7329;50.866;4.366;2022-12-10T03:29:41;12.52;;;9.85;;
14486;SDS011;7329;50.866;4.366;2022-12-10T03:31:48;11.43;;;9.88;;
14486;SDS011;7329;50.866;4.366;2022-12-10T03:33:52;12.35;;;9.70;;
14486;SDS011;7329;50.866;4.366;2022-12-10T03:35:56;11.50;;;9.63;;
14486;SDS011;7329;50.866;4.366;2022-12-10T03:38:00;9.93;;;8.88;;
14486;SDS011;7329;50.866;4.366;2022-12-10T03:40:04;11.57;;;9.77;;
14486;SDS011;7329;50.866;4.366;2022-12-10T03:42:07;12.82;;;10.35;;
14486;SDS011;7329;50.866;4.366;2022-12-10T03:44:10;12.32;;;10.00;;
14486;SDS011;7329;50.866;4.366;2022-12-10T03:46:12;12.70;;;9.90;;
14486;SDS011;7329;50.866;4.366;2022-12-10T03:48:15;12.00;;;9.77;;
14486;SDS011;7329;50.866;4.366;2022-12-10T03:50:17;11.80;;;10.32;;
14486;SDS011;7329;50.866;4.366;2022-12-10T03:52:20;11.45;;;9.57;;
14486;SDS011;7329;50.866;4.366;2022-12-10T03:54:23;12.63;;;10.13;;
14486;SDS011;7329;50.866;4.366;2022-12-10T03:56:26;13.10;;;11.00;;
14486;SDS011;7329;50.866;4.366;2022-12-10T03:58:28;13.35;;;10.15;;
14486;SDS011;7329;50.866;4.366;2022-12-10T04:00:30;12.60;;;9.88;;
14486;SDS011;7329;50.866;4.366;2022-12-10T04:02:33;11.95;;;9.63;;
14486;SDS011;7329;50.866;4.366;2022-12-10T04:04:35;11.18;;;9.27;;
14486;SDS011;7329;50.866;4.366;2022-12-10T04:06:38;12.23;;;10.10;;
14486;SDS011;7329;50.866;4.366;2022-12-10T04:08:41;12.43;;;10.27;;
14486;SDS011;7329;50.866;4.366;2022-12-10T04:10:44;12.77;;;10.75;;
14486;SDS011;7329;50.866;4.366;2022-12-10T04:12:47;10.75;;;9.43;;
14486;SDS011;7329;50.866;4.366;2022-12-10T04:15:09;12.98;;;10.85;;
14486;SDS011;7329;50.866;4.366;2022-12-10T04:17:30;14.10;;;10.80;;
14486;SDS011;7329;50.866;4.366;2022-12-10T04:19:33;12.90;;;10.20;;
14486;SDS011;7329;50.866;4.366;2022-12-10T04:21:36;13.43;;;10.85;;
14486;SDS011;7329;50.866;4.366;2022-12-10T04:23:58;12.73;;;10.27;;
14486;SDS011;7329;50.866;4.366;2022-12-10T04:26:18;12.93;;;10.75;;
14486;SDS011;7329;50.866;4.366;2022-12-10T04:28:38;13.50;;;10.27;;
14486;SDS011;7329;50.866;4.366;2022-12-10T04:30:40;13.27;;;10.65;;
14486;SDS011;7329;50.866;4.366;2022-12-10T04:32:43;12.93;;;11.05;;
14486;SDS011;7329;50.866;4.366;2022-12-10T04:34:45;13.77;;;11.40;;
14486;SDS011;7329;50.866;4.366;2022-12-10T04:36:47;13.27;;;10.38;;
14486;SDS011;7329;50.866;4.366;2022-12-10T04:38:50;13.68;;;10.93;;
14486;SDS011;7329;50.866;4.366;2022-12-10T04:40:53;13.38;;;11.02;;
14486;SDS011;7329;50.866;4.366;2022-12-10T04:42:56;12.90;;;10.90;;
14486;SDS011;7329;50.866;4.366;2022-12-10T04:44:59;12.38;;;10.18;;
14486;SDS011;7329;50.866;4.366;2022-12-10T04:47:01;14.25;;;10.73;;
14486;SDS011;7329;50.866;4.366;2022-12-10T04:49:04;14.75;;;11.57;;
14486;SDS011;7329;50.866;4.366;2022-12-10T04:51:07;14.27;;;11.38;;
14486;SDS011;7329;50.866;4.366;2022-12-10T04:53:09;12.98;;;11.38;;
14486;SDS011;7329;50.866;4.366;2022-12-10T04:55:11;13.25;;;10.95;;
14486;SDS011;7329;50.866;4.366;2022-12-10T04:57:15;14.77;;;11.18;;
14486;SDS011;7329;50.866;4.366;2022-12-10T04:59:19;13.95;;;11.07;;
14486;SDS011;7329;50.866;4.366;2022-12-10T05:01:21;14.63;;;11.52;;
14486;SDS011;7329;50.866;4.366;2022-12-10T05:03:24;13.55;;;10.90;;
14486;SDS011;7329;50.866;4.366;2022-12-10T05:05:26;12.95;;;11.05;;
14486;SDS011;7329;50.866;4.366;2022-12-10T05:07:28;13.40;;;10.80;;
14486;SDS011;7329;50.866;4.366;2022-12-10T05:09:31;13.73;;;11.30;;
14486;SDS011;7329;50.866;4.366;2022-12-10T05:11:33;13.82;;;11.20;;
14486;SDS011;7329;50.866;4.366;2022-12-10T05:13:36;13.60;;;11.13;;
14486;SDS011;7329;50.866;4.366;2022-12-10T05:15:40;15.77;;;11.70;;
14486;SDS011;7329;50.866;4.366;2022-12-10T05:17:43;16.00;;;11.57;;
14486;SDS011;7329;50.866;4.366;2022-12-10T05:19:45;12.95;;;10.68;;
14486;SDS011;7329;50.866;4.366;2022-12-10T05:21:47;14.20;;;11.30;;
14486;SDS011;7329;50.866;4.366;2022-12-10T05:24:10;15.40;;;11.60;;
14486;SDS011;7329;50.866;4.366;2022-12-10T05:26:13;15.27;;;11.82;;
14486;SDS011;7329;50.866;4.366;2022-12-10T05:28:17;13.82;;;11.02;;
14486;SDS011;7329;50.866;4.366;2022-12-10T05:30:19;14.75;;;11.52;;
14486;SDS011;7329;50.866;4.366;2022-12-10T05:32:23;14.40;;;11.65;;
14486;SDS011;7329;50.866;4.366;2022-12-10T05:34:25;14.88;;;11.90;;
14486;SDS011;7329;50.866;4.366;2022-12-10T05:36:28;14.55;;;11.32;;
14486;SDS011;7329;50.866;4.366;2022-12-10T05:38:32;15.77;;;12.60;;
14486;SDS011;7329;50.866;4.366;2022-12-10T05:40:36;13.95;;;11.60;;
14486;SDS011;7329;50.866;4.366;2022-12-10T05:42:38;12.65;;;10.95;;
14486;SDS011;7329;50.866;4.366;2022-12-10T05:44:41;15.73;;;12.20;;
14486;SDS011;7329;50.866;4.366;2022-12-10T05:46:43;15.63;;;12.23;;
14486;SDS011;7329;50.866;4.366;2022-12-10T05:48:47;17.25;;;12.13;;
14486;SDS011;7329;50.866;4.366;2022-12-10T05:50:49;16.02;;;11.65;;
14486;SDS011;7329;50.866;4.366;2022-12-10T05:52:52;14.93;;;11.80;;
14486;SDS011;7329;50.866;4.366;2022-12-10T05:54:54;14.95;;;12.05;;
14486;SDS011;7329;50.866;4.366;2022-12-10T05:56:56;15.55;;;11.63;;
14486;SDS011;7329;50.866;4.366;2022-12-10T05:58:59;14.27;;;11.40;;
14486;SDS011;7329;50.866;4.366;2022-12-10T06:01:05;16.23;;;11.68;;
14486;SDS011;7329;50.866;4.366;2022-12-10T06:03:08;16.30;;;11.82;;
14486;SDS011;7329;50.866;4.366;2022-12-10T06:05:12;15.60;;;12.18;;
14486;SDS011;7329;50.866;4.366;2022-12-10T06:07:14;13.27;;;10.95;;
14486;SDS011;7329;50.866;4.366;2022-12-10T06:09:16;14.57;;;11.65;;
14486;SDS011;7329;50.866;4.366;2022-12-10T06:11:19;16.15;;;12.10;;
14486;SDS011;7329;50.866;4.366;2022-12-10T06:13:22;16.08;;;11.93;;
14486;SDS011;7329;50.866;4.366;2022-12-10T06:15:24;15.90;;;12.60;;
14486;SDS011;7329;50.866;4.366;2022-12-10T06:17:26;14.00;;;11.45;;
14486;SDS011;7329;50.866;4.366;2022-12-10T06:19:29;13.98;;;11.95;;
14486;SDS011;7329;50.866;4.366;2022-12-10T06:21:33;14.45;;;11.23;;
14486;SDS011;7329;50.866;4.366;2022-12-10T06:23:36;14.77;;;12.32;;
14486;SDS011;7329;50.866;4.366;2022-12-10T06:25:39;13.15;;;11.48;;
14486;SDS011;7329;50.866;4.366;2022-12-10T06:27:41;16.00;;;12.85;;
14486;SDS011;7329;50.866;4.366;2022-12-10T06:29:44;15.35;;;11.90;;
14486;SDS011;7329;50.866;4.366;2022-12-10T06:31:46;16.80;;;12.93;;
14486;SDS011;7329;50.866;4.366;2022-12-10T06:33:48;17.05;;;12.15;;
14486;SDS011;7329;50.866;4.366;2022-12-10T06:35:52;15.48;;;11.48;;
14486;SDS011;7329;50.866;4.366;2022-12-10T06:37:55;15.73;;;11.65;;
14486;SDS011;7329;50.866;4.366;2022-12-10T06:39:58;15.48;;;11.93;;
14486;SDS011;7329;50.866;4.366;2022-12-10T06:42:00;13.73;;;11.52;;
14486;SDS011;7329;50.866;4.366;2022-12-10T06:44:06;18.45;;;12.38;;
14486;SDS011;7329;50.866;4.366;2022-12-10T06:46:10;14.70;;;12.43;;
14486;SDS011;7329;50.866;4.366;2022-12-10T06:48:13;12.43;;;11.05;;
14486;SDS011;7329;50.866;4.366;2022-12-10T06:50:15;15.40;;;11.98;;
14486;SDS011;7329;50.866;4.366;2022-12-10T06:52:18;14.50;;;11.43;;
14486;SDS011;7329;50.866;4.366;2022-12-10T06:54:21;15.30;;;12.13;;
14486;SDS011;7329;50.866;4.366;2022-12-10T06:56:24;15.48;;;11.93;;
14486;SDS011;7329;50.866;4.366;2022-12-10T06:58:27;16.45;;;12.48;;
14486;SDS011;7329;50.866;4.366;2022-12-10T07:00:30;14.55;;;11.68;;
14486;SDS011;7329;50.866;4.366;2022-12-10T07:02:33;14.80;;;11.82;;
14486;SDS011;7329;50.866;4.366;2022-12-10T07:04:36;15.98;;;11.40;;
14486;SDS011;7329;50.866;4.366;2022-12-10T07:06:38;14.63;;;11.63;;
14486;SDS011;7329;50.866;4.366;2022-12-10T07:08:40;16.40;;;12.48;;
14486;SDS011;7329;50.866;4.366;2022-12-10T07:10:44;15.85;;;11.98;;
14486;SDS011;7329;50.866;4.366;2022-12-10T07:12:46;13.35;;;11.07;;
14486;SDS011;7329;50.866;4.366;2022-12-10T07:14:49;14.25;;;11.30;;
14486;SDS011;7329;50.866;4.366;2022-12-10T07:16:51;15.68;;;12.45;;
14486;SDS011;7329;50.866;4.366;2022-12-10T07:18:54;14.48;;;11.40;;
14486;SDS011;7329;50.866;4.366;2022-12-10T07:20:58;15.40;;;11.93;;
14486;SDS011;7329;50.866;4.366;2022-12-10T07:23:00;14.40;;;11.50;;
14486;SDS011;7329;50.866;4.366;2022-12-10T07:25:03;16.40;;;11.93;;
14486;SDS011;7329;50.866;4.366;2022-12-10T07:27:07;15.52;;;11.73;;
14486;SDS011;7329;50.866;4.366;2022-12-10T07:29:11;14.73;;;11.13;;
14486;SDS011;7329;50.866;4.366;2022-12-10T07:31:15;15.40;;;12.00;;
14486;SDS011;7329;50.866;4.366;2022-12-10T07:33:18;15.02;;;11.85;;
14486;SDS011;7329;50.866;4.366;2022-12-10T07:35:20;14.15;;;11.68;;
14486;SDS011;7329;50.866;4.366;2022-12-10T07:37:22;15.15;;;12.02;;
14486;SDS011;7329;50.866;4.366;2022-12-10T07:39:25;14.05;;;11.55;;
14486;SDS011;7329;50.866;4.366;2022-12-10T07:41:27;14.30;;;11.77;;
14486;SDS011;7329;50.866;4.366;2022-12-10T07:43:33;14.57;;;11.43;;
14486;SDS011;7329;50.866;4.366;2022-12-10T07:45:36;14.88;;;11.70;;
14486;SDS011;7329;50.866;4.366;2022-12-10T07:47:39;15.25;;;11.60;;
14486;SDS011;7329;50.866;4.366;2022-12-10T07:49:41;16.65;;;11.98;;
14486;SDS011;7329;50.866;4.366;2022-12-10T07:51:44;15.40;;;11.65;;
14486;SDS011;7329;50.866;4.366;2022-12-10T07:53:47;15.25;;;11.55;;
14486;SDS011;7329;50.866;4.366;2022-12-10T07:55:50;13.63;;;10.70;;
14486;SDS011;7329;50.866;4.366;2022-12-10T07:57:52;16.40;;;11.93;;
14486;SDS011;7329;50.866;4.366;2022-12-10T07:59:56;15.30;;;11.45;;
14486;SDS011;7329;50.866;4.366;2022-12-10T08:01:59;14.38;;;11.27;;
14486;SDS011;7329;50.866;4.366;2022-12-10T08:04:01;14.13;;;11.57;;
14486;SDS011;7329;50.866;4.366;2022-12-10T08:06:05;13.63;;;10.80;;
14486;SDS011;7329;50.866;4.366;2022-12-10T08:08:09;13.60;;;11.35;;
14486;SDS011;7329;50.866;4.366;2022-12-10T08:10:11;15.48;;;11.70;;
14486;SDS011;7329;50.866;4.366;2022-12-10T08:12:13;15.68;;;11.85;;
14486;SDS011;7329;50.866;4.366;2022-12-10T08:14:16;14.70;;;10.95;;
14486;SDS011;7329;50.866;4.366;2022-12-10T08:16:20;14.35;;;10.82;;
14486;SDS011;7329;50.866;4.366;2022-12-10T08:18:25;14.15;;;11.13;;
14486;SDS011;7329;50.866;4.366;2022-12-10T08:20:27;16.85;;;12.50;;
14486;SDS011;7329;50.866;4.366;2022-12-10T08:22:30;13.57;;;10.75;;
14486;SDS011;7329;50.866;4.366;2022-12-10T08:24:34;14.25;;;11.18;;
14486;SDS011;7329;50.866;4.366;2022-12-10T08:26:37;13.60;;;11.15;;
14486;SDS011;7329;50.866;4.366;2022-12-10T08:28:39;13.93;;;11.07;;
14486;SDS011;7329;50.866;4.366;2022-12-10T08:30:44;14.40;;;11.45;;
14486;SDS011;7329;50.866;4.366;2022-12-10T08:32:49;17.10;;;12.05;;
14486;SDS011;7329;50.866;4.366;2022-12-10T08:34:51;14.48;;;11.07;;
14486;SDS011;7329;50.866;4.366;2022-12-10T08:36:53;15.15;;;11.15;;
14486;SDS011;7329;50.866;4.366;2022-12-10T08:38:55;14.77;;;11.82;;
14486;SDS011;7329;50.866;4.366;2022-12-10T08:40:58;15.73;;;11.60;;
14486;SDS011;7329;50.866;4.366;2022-12-10T08:43:00;15.57;;;11.73;;
14486;SDS011;7329;50.866;4.366;2022-12-10T08:45:03;15.45;;;11.60;;
14486;SDS011;7329;50.866;4.366;2022-12-10T08:47:06;14.52;;;11.55;;
14486;SDS011;7329;50.866;4.366;2022-12-10T08:49:09;14.75;;;11.80;;
14486;SDS011;7329;50.866;4.366;2022-12-10T08:51:13;15.52;;;12.10;;
14486;SDS011;7329;50.866;4.366;2022-12-10T08:53:17;14.48;;;10.82;;
14486;SDS011;7329;50.866;4.366;2022-12-10T08:55:19;13.77;;;11.13;;
14486;SDS011;7329;50.866;4.366;2022-12-10T08:57:22;13.10;;;10.75;;
14486;SDS011;7329;50.866;4.366;2022-12-10T08:59:24;15.18;;;11.57;;
14486;SDS011;7329;50.866;4.366;2022-12-10T09:01:26;14.80;;;11.30;;
14486;SDS011;7329;50.866;4.366;2022-12-10T09:03:28;16.20;;;12.00;;
14486;SDS011;7329;50.866;4.366;2022-12-10T09:05:33;14.27;;;11.00;;
14486;SDS011;7329;50.866;4.366;2022-12-10T09:07:36;14.73;;;11.70;;
14486;SDS011;7329;50.866;4.366;2022-12-10T09:09:38;15.50;;;11.52;;
14486;SDS011;7329;50.866;4.366;2022-12-10T09:11:40;14.45;;;10.85;;
14486;SDS011;7329;50.866;4.366;2022-12-10T09:13:44;14.27;;;11.45;;
14486;SDS011;7329;50.866;4.366;2022-12-10T09:15:49;13.73;;;11.48;;
14486;SDS011;7329;50.866;4.366;2022-12-10T09:17:52;13.65;;;10.60;;
14486;SDS011;7329;50.866;4.366;2022-12-10T09:19:55;13.93;;;10.88;;
14486;SDS011;7329;50.866;4.366;2022-12-10T09:21:59;15.55;;;12.02;;
14486;SDS011;7329;50.866;4.366;2022-12-10T09:24:01;13.07;;;10.68;;
14486;SDS011;7329;50.866;4.366;2022-12-10T09:26:06;14.15;;;11.02;;
14486;SDS011;7329;50.866;4.366;2022-12-10T09:28:09;13.27;;;10.73;;
14486;SDS011;7329;50.866;4.366;2022-12-10T09:30:12;16.63;;;11.65;;
14486;SDS011;7329;50.866;4.366;2022-12-10T09:32:14;13.98;;;10.90;;
14486;SDS011;7329;50.866;4.366;2022-12-10T09:34:17;14.82;;;11.15;;
14486;SDS011;7329;50.866;4.366;2022-12-10T09:36:20;13.18;;;10.52;;
14486;SDS011;7329;50.866;4.366;2022-12-10T09:38:24;16.23;;;11.60;;
14486;SDS011;7329;50.866;4.366;2022-12-10T09:40:29;14.88;;;11.63;;
14486;SDS011;7329;50.866;4.366;2022-12-10T09:42:41;13.90;;;11.30;;
14486;SDS011;7329;50.866;4.366;2022-12-10T09:44:52;13.25;;;10.43;;
14486;SDS011;7329;50.866;4.366;2022-12-10T09:47:02;14.85;;;10.98;;
14486;SDS011;7329;50.866;4.366;2022-12-10T09:49:08;14.70;;;11.88;;
14486;SDS011;7329;50.866;4.366;2022-12-10T09:51:20;13.65;;;10.68;;
14486;SDS011;7329;50.866;4.366;2022-12-10T09:53:26;15.10;;;11.70;;
14486;SDS011;7329;50.866;4.366;2022-12-10T09:55:31;13.77;;;11.15;;
14486;SDS011;7329;50.866;4.366;2022-12-10T09:57:36;13.88;;;10.70;;
14486;SDS011;7329;50.866;4.366;2022-12-10T09:59:44;12.70;;;10.82;;
14486;SDS011;7329;50.866;4.366;2022-12-10T10:01:51;14.07;;;10.85;;
14486;SDS011;7329;50.866;4.366;2022-12-10T10:04:03;14.57;;;11.70;;
14486;SDS011;7329;50.866;4.366;2022-12-10T10:06:06;13.40;;;11.10;;
14486;SDS011;7329;50.866;4.366;2022-12-10T10:08:13;14.27;;;11.27;;
14486;SDS011;7329;50.866;4.366;2022-12-10T10:10:25;12.95;;;10.30;;
14486;SDS011;7329;50.866;4.366;2022-12-10T10:12:29;14.00;;;10.60;;
14486;SDS011;7329;50.866;4.366;2022-12-10T10:14:33;13.38;;;11.40;;
14486;SDS011;7329;50.866;4.366;2022-12-10T10:16:36;14.75;;;11.43;;
14486;SDS011;7329;50.866;4.366;2022-12-10T10:18:46;13.50;;;10.52;;
14486;SDS011;7329;50.866;4.366;2022-12-10T10:20:53;15.10;;;11.70;;
14486;SDS011;7329;50.866;4.366;2022-12-10T10:22:56;14.35;;;11.40;;
14486;SDS011;7329;50.866;4.366;2022-12-10T10:25:01;13.77;;;10.95;;
14486;SDS011;7329;50.866;4.366;2022-12-10T10:27:10;14.13;;;11.07;;
14486;SDS011;7329;50.866;4.366;2022-12-10T10:29:15;14.85;;;11.45;;
14486;SDS011;7329;50.866;4.366;2022-12-10T10:31:21;13.73;;;10.90;;
14486;SDS011;7329;50.866;4.366;2022-12-10T10:33:26;16.23;;;11.15;;
14486;SDS011;7329;50.866;4.366;2022-12-10T10:35:29;13.45;;;11.18;;
14486;SDS011;7329;50.866;4.366;2022-12-10T10:37:38;14.02;;;11.88;;
14486;SDS011;7329;50.866;4.366;2022-12-10T10:39:46;12.50;;;10.68;;
14486;SDS011;7329;50.866;4.366;2022-12-10T10:41:50;13.85;;;11.55;;
14486;SDS011;7329;50.866;4.366;2022-12-10T10:43:59;14.45;;;11.52;;
14486;SDS011;7329;50.866;4.366;2022-12-10T10:46:04;14.10;;;10.98;;
14486;SDS011;7329;50.866;4.366;2022-12-10T10:48:13;13.73;;;10.98;;
14486;SDS011;7329;50.866;4.366;2022-12-10T10:50:23;14.13;;;11.13;;
14486;SDS011;7329;50.866;4.366;2022-12-10T10:52:28;12.80;;;11.18;;
14486;SDS011;7329;50.866;4.366;2022-12-10T10:54:34;13.93;;;11.30;;
14486;SDS011;7329;50.866;4.366;2022-12-10T10:56:40;13.38;;;11.07;;
14486;SDS011;7329;50.866;4.366;2022-12-10T10:58:50;15.07;;;11.52;;
14486;SDS011;7329;50.866;4.366;2022-12-10T11:00:58;14.60;;;11.35;;
14486;SDS011;7329;50.866;4.366;2022-12-10T11:03:02;13.15;;;10.95;;
14486;SDS011;7329;50.866;4.366;2022-12-10T11:05:14;14.27;;;11.93;;
14486;SDS011;7329;50.866;4.366;2022-12-10T11:07:21;13.30;;;10.93;;
14486;SDS011;7329;50.866;4.366;2022-12-10T11:09:27;13.82;;;10.90;;
14486;SDS011;7329;50.866;4.366;2022-12-10T11:11:32;13.77;;;11.15;;
14486;SDS011;7329;50.866;4.366;2022-12-10T11:13:36;12.93;;;10.90;;
14486;SDS011;7329;50.866;4.366;2022-12-10T11:15:40;13.23;;;10.80;;
14486;SDS011;7329;50.866;4.366;2022-12-10T11:17:47;15.45;;;11.90;;
14486;SDS011;7329;50.866;4.366;2022-12-10T11:19:55;15.93;;;11.30;;
14486;SDS011;7329;50.866;4.366;2022-12-10T11:22:14;15.07;;;11.52;;
14486;SDS011;7329;50.866;4.366;2022-12-10T11:24:19;14.82;;;11.20;;
14486;SDS011;7329;50.866;4.366;2022-12-10T11:26:24;14.98;;;11.27;;
14486;SDS011;7329;50.866;4.366;2022-12-10T11:28:51;15.57;;;11.50;;
14486;SDS011;7329;50.866;4.366;2022-12-10T11:31:11;13.70;;;11.18;;
14486;SDS011;7329;50.866;4.366;2022-12-10T11:33:27;14.88;;;11.40;;
14486;SDS011;7329;50.866;4.366;2022-12-10T11:35:39;14.32;;;11.57;;
14486;SDS011;7329;50.866;4.366;2022-12-10T11:37:49;14.23;;;11.55;;
14486;SDS011;7329;50.866;4.366;2022-12-10T11:40:15;14.15;;;11.10;;
14486;SDS011;7329;50.866;4.366;2022-12-10T11:42:30;15.73;;;11.18;;
14486;SDS011;7329;50.866;4.366;2022-12-10T11:44:41;13.98;;;11.27;;
14486;SDS011;7329;50.866;4.366;2022-12-10T11:46:56;13.85;;;10.85;;
14486;SDS011;7329;50.866;4.366;2022-12-10T11:49:35;14.60;;;10.68;;
14486;SDS011;7329;50.866;4.366;2022-12-10T11:51:43;13.10;;;11.15;;
14486;SDS011;7329;50.866;4.366;2022-12-10T11:53:59;12.88;;;10.50;;
14486;SDS011;7329;50.866;4.366;2022-12-10T11:56:10;13.23;;;10.38;;
14486;SDS011;7329;50.866;4.366;2022-12-10T11:58:26;13.25;;;10.70;;
14486;SDS011;7329;50.866;4.366;2022-12-10T12:00:42;14.65;;;11.48;;
14486;SDS011;7329;50.866;4.366;2022-12-10T12:03:00;15.68;;;11.82;;
14486;SDS011;7329;50.866;4.366;2022-12-10T12:05:17;14.20;;;11.13;;
14486;SDS011;7329;50.866;4.366;2022-12-10T12:07:31;14.00;;;11.25;;
14486;SDS011;7329;50.866;4.366;2022-12-10T12:09:42;14.07;;;11.02;;
14486;SDS011;7329;50.866;4.366;2022-12-10T12:12:02;13.63;;;11.45;;
14486;SDS011;7329;50.866;4.366;2022-12-10T12:14:14;15.57;;;11.25;;
14486;SDS011;7329;50.866;4.366;2022-12-10T12:16:22;13.70;;;11.38;;
14486;SDS011;7329;50.866;4.366;2022-12-10T12:18:32;14.48;;;11.38;;
14486;SDS011;7329;50.866;4.366;2022-12-10T12:20:45;14.52;;;11.75;;
14486;SDS011;7329;50.866;4.366;2022-12-10T12:22:52;13.88;;;10.57;;
14486;SDS011;7329;50.866;4.366;2022-12-10T12:24:59;14.82;;;11.15;;
14486;SDS011;7329;50.866;4.366;2022-12-10T12:27:08;15.13;;;11.35;;